createdAt,value
2022-10-15T00:00:20.761Z,76.19
2022-10-15T00:02:47.680Z,76.22
2022-10-15T00:05:14.671Z,75.68
2022-10-15T00:07:41.672Z,75.86
2022-10-15T00:10:08.627Z,76.30
2022-10-15T00:12:36.082Z,76.45
2022-10-15T00:15:03.379Z,75.96
2022-10-15T00:17:30.323Z,76.23
2022-10-15T00:19:57.381Z,76.40
2022-10-15T00:22:24.558Z,76.39
2022-10-15T00:24:51.712Z,76.13
2022-10-15T00:27:18.660Z,76.55
2022-10-15T00:29:45.612Z,76.68
2022-10-15T00:32:12.547Z,77.46
2022-10-15T00:34:39.514Z,77.14
2022-10-15T00:37:07.322Z,77.33
2022-10-15T00:39:34.780Z,77.19
2022-10-15T00:42:01.709Z,77.46
2022-10-15T00:44:32.161Z,78.01
2022-10-15T00:47:29.855Z,78.41
2022-10-15T00:50:01.416Z,78.58
2022-10-15T00:52:50.196Z,78.52
2022-10-15T00:55:31.335Z,78.63
2022-10-15T00:58:14.393Z,79.04
2022-10-15T01:00:42.118Z,79.29
2022-10-15T01:03:09.635Z,79.38
2022-10-15T01:05:38.733Z,79.26
2022-10-15T01:08:09.673Z,79.69
2022-10-15T01:10:53.329Z,79.43
2022-10-15T01:13:25.453Z,79.76
2022-10-15T01:18:56.271Z,80.20
2022-10-15T01:21:38.277Z,80.50
2022-10-15T01:24:42.913Z,80.83
2022-10-15T01:27:45.317Z,81.28
2022-10-15T01:30:24.008Z,80.81
2022-10-15T01:33:08.644Z,81.74
2022-10-15T01:35:47.182Z,81.04
2022-10-15T01:38:19.713Z,81.58
2022-10-15T01:40:53.318Z,80.96
2022-10-15T01:43:38.178Z,81.86
2022-10-15T01:46:59.204Z,81.24
2022-10-15T01:49:30.428Z,81.59
2022-10-15T01:52:01.067Z,82.16
2022-10-15T01:54:30.428Z,81.23
2022-10-15T01:56:58.992Z,81.19
2022-10-15T01:59:31.445Z,81.44
2022-10-15T02:01:58.780Z,81.52
2022-10-15T02:04:31.491Z,82.09
2022-10-15T02:07:25.277Z,81.53
2022-10-15T02:09:57.932Z,81.89
2022-10-15T02:12:50.613Z,81.88
2022-10-15T02:15:22.955Z,82.28
2022-10-15T02:18:10.259Z,82.48
2022-10-15T02:20:44.999Z,81.78
2022-10-15T02:23:22.315Z,81.59
2022-10-15T02:25:52.140Z,80.95
2022-10-15T02:28:20.440Z,80.75
2022-10-15T02:30:52.946Z,80.60
2022-10-15T02:33:21.099Z,80.09
2022-10-15T02:35:51.368Z,79.72
2022-10-15T02:38:23.254Z,79.54
2022-10-15T02:40:52.009Z,79.74
2022-10-15T02:43:21.357Z,79.03
2022-10-15T02:45:50.785Z,79.27
2022-10-15T02:48:18.636Z,78.94
2022-10-15T02:50:47.278Z,79.42
2022-10-15T02:53:14.366Z,78.90
2022-10-15T02:55:43.092Z,79.44
2022-10-15T02:58:09.950Z,79.70
2022-10-15T03:00:37.137Z,79.43
2022-10-15T03:03:04.265Z,79.73
2022-10-15T03:05:31.474Z,80.25
2022-10-15T03:08:00.513Z,79.49
2022-10-15T03:10:28.313Z,79.71
2022-10-15T03:12:55.395Z,80.12
2022-10-15T03:15:23.001Z,79.96
2022-10-15T03:17:51.128Z,79.45
2022-10-15T03:20:18.198Z,79.95
2022-10-15T03:22:45.368Z,80.16
2022-10-15T03:25:12.488Z,79.73
2022-10-15T03:27:39.930Z,79.93
2022-10-15T03:30:20.488Z,79.78
2022-10-15T03:32:48.353Z,80.26
2022-10-15T03:35:15.969Z,80.04
2022-10-15T03:37:42.935Z,79.85
2022-10-15T03:40:13.641Z,80.15
2022-10-15T03:42:41.867Z,80.60
2022-10-15T03:45:10.786Z,80.95
2022-10-15T03:47:38.192Z,81.60
2022-10-15T03:50:05.504Z,81.84
2022-10-15T03:52:32.487Z,82.30
2022-10-15T03:54:59.907Z,82.25
2022-10-15T03:57:26.895Z,82.35
2022-10-15T04:00:00.168Z,83.20
2022-10-15T04:02:30.778Z,83.53
2022-10-15T04:04:58.057Z,83.32
2022-10-15T04:07:25.975Z,83.87
2022-10-15T04:09:53.047Z,84.18
2022-10-15T04:12:23.941Z,84.56
2022-10-15T04:14:51.517Z,84.54
2022-10-15T04:17:18.649Z,84.76
2022-10-15T04:19:45.824Z,84.78
2022-10-15T04:22:14.689Z,84.42
2022-10-15T04:24:47.172Z,84.91
2022-10-15T04:27:24.306Z,84.83
2022-10-15T04:29:51.389Z,85.18
2022-10-15T04:32:18.922Z,85.40
2022-10-15T04:34:47.416Z,85.12
2022-10-15T04:37:15.991Z,85.29
2022-10-15T04:39:42.984Z,85.01
2022-10-15T04:42:12.956Z,85.07
2022-10-15T04:44:40.540Z,84.80
2022-10-15T04:47:07.640Z,84.75
2022-10-15T04:49:41.537Z,84.68
2022-10-15T04:52:27.517Z,84.11
2022-10-15T04:55:04.941Z,83.99
2022-10-15T04:57:32.373Z,84.33
2022-10-15T04:59:59.267Z,83.87
2022-10-15T05:02:33.198Z,84.00
2022-10-15T05:05:19.040Z,83.65
2022-10-15T05:08:03.636Z,83.67
2022-10-15T05:10:34.762Z,83.28
2022-10-15T05:13:05.570Z,83.09
2022-10-15T05:15:35.154Z,82.62
2022-10-15T05:18:06.038Z,82.74
2022-10-15T05:20:42.029Z,82.58
2022-10-15T05:23:14.180Z,82.24
2022-10-15T05:25:50.378Z,82.27
2022-10-15T05:28:22.874Z,82.14
2022-10-15T05:30:49.789Z,81.73
2022-10-15T05:33:16.880Z,81.81
2022-10-15T05:35:43.849Z,82.06
2022-10-15T05:38:10.785Z,81.27
2022-10-15T05:40:39.369Z,81.20
2022-10-15T05:43:11.539Z,80.76
2022-10-15T05:45:38.569Z,80.95
2022-10-15T05:48:07.002Z,80.71
2022-10-15T05:50:34.857Z,80.41
2022-10-15T05:53:04.208Z,80.79
2022-10-15T05:55:37.519Z,80.24
2022-10-15T05:58:05.234Z,80.11
2022-10-15T06:00:32.855Z,80.04
2022-10-15T06:02:59.764Z,79.78
2022-10-15T06:05:26.674Z,79.41
2022-10-15T06:07:53.691Z,79.17
2022-10-15T06:10:20.561Z,78.86
2022-10-15T06:12:51.242Z,78.69
2022-10-15T06:15:19.401Z,78.30
2022-10-15T06:17:46.316Z,78.25
2022-10-15T06:20:14.163Z,78.09
2022-10-15T06:22:41.119Z,77.66
2022-10-15T06:25:09.504Z,77.54
2022-10-15T06:27:36.539Z,77.43
2022-10-15T06:30:04.347Z,76.96
2022-10-15T06:32:31.520Z,76.76
2022-10-15T06:34:58.441Z,76.66
2022-10-15T06:37:26.507Z,76.03
2022-10-15T06:39:56.075Z,76.18
2022-10-15T06:42:23.170Z,76.19
2022-10-15T06:44:55.252Z,75.52
2022-10-15T06:47:22.521Z,75.04
2022-10-15T06:49:50.363Z,75.43
2022-10-15T06:52:17.252Z,74.76
2022-10-15T06:54:44.140Z,74.13
2022-10-15T06:57:11.114Z,74.16
2022-10-15T06:59:41.189Z,73.44
2022-10-15T07:02:17.872Z,72.81
2022-10-15T07:04:45.526Z,72.77
2022-10-15T07:07:18.418Z,71.84
2022-10-15T07:09:46.921Z,71.60
2022-10-15T07:12:14.147Z,71.35
2022-10-15T07:14:42.481Z,70.98
2022-10-15T07:17:09.705Z,70.75
2022-10-15T07:19:36.607Z,70.53
2022-10-15T07:22:03.625Z,70.11
2022-10-15T07:24:30.654Z,69.80
2022-10-15T07:26:57.670Z,69.52
2022-10-15T07:29:24.735Z,69.10
2022-10-15T07:31:51.757Z,68.81
2022-10-15T07:34:19.354Z,68.18
2022-10-15T07:36:46.208Z,67.78
2022-10-15T07:39:13.746Z,66.72
2022-10-15T07:41:40.741Z,66.99
2022-10-15T07:44:07.697Z,66.04
2022-10-15T07:46:34.636Z,66.09
2022-10-15T07:49:01.570Z,65.50
2022-10-15T07:51:28.545Z,65.20
2022-10-15T07:53:56.283Z,65.46
2022-10-15T07:56:23.161Z,64.51
2022-10-15T07:58:52.867Z,64.47
2022-10-15T08:01:21.251Z,63.84
2022-10-15T08:03:48.532Z,63.43
2022-10-15T08:06:15.663Z,62.80
2022-10-15T08:08:43.329Z,62.51
2022-10-15T08:11:13.264Z,62.21
2022-10-15T08:13:42.231Z,61.19
2022-10-15T08:16:11.066Z,61.41
2022-10-15T08:18:38.935Z,60.73
2022-10-15T08:21:06.962Z,60.44
2022-10-15T08:23:34.982Z,60.18
2022-10-15T08:26:02.230Z,59.89
2022-10-15T08:28:29.599Z,59.64
2022-10-15T08:31:04.388Z,59.32
2022-10-15T08:33:37.431Z,57.44
2022-10-15T08:36:08.292Z,57.06
2022-10-15T08:38:35.727Z,55.58
2022-10-15T08:41:06.089Z,54.92
2022-10-15T08:43:40.362Z,55.18
2022-10-15T08:46:22.782Z,54.45
2022-10-15T08:48:53.932Z,54.73
2022-10-15T08:51:28.585Z,54.98
2022-10-15T08:54:00.261Z,53.88
2022-10-15T08:56:27.100Z,54.25
2022-10-15T08:59:18.649Z,54.09
2022-10-15T09:02:03.821Z,54.10
2022-10-15T09:04:42.528Z,55.75
2022-10-15T09:07:13.279Z,55.84
2022-10-15T09:09:52.561Z,55.20
2022-10-15T09:12:29.101Z,56.95
2022-10-15T09:14:58.738Z,57.82
2022-10-15T09:17:32.121Z,58.28
2022-10-15T09:20:02.970Z,59.52
2022-10-15T09:22:33.830Z,59.89
2022-10-15T09:25:14.446Z,58.93
2022-10-15T09:27:42.846Z,58.97
2022-10-15T09:30:25.031Z,59.44
2022-10-15T09:32:55.917Z,59.24
2022-10-15T09:35:29.742Z,60.03
2022-10-15T09:37:56.639Z,58.49
2022-10-15T09:41:16.756Z,59.39
2022-10-15T09:43:48.706Z,59.53
2022-10-15T10:17:06.575Z,62.38
2022-10-15T10:19:33.600Z,62.11
2022-10-15T10:22:20.057Z,61.49
2022-10-15T10:24:47.795Z,61.99
2022-10-15T10:27:25.432Z,61.68
2022-10-15T10:29:56.966Z,60.94
2022-10-15T10:32:30.638Z,61.22
2022-10-15T10:34:58.988Z,61.32
2022-10-15T10:37:26.603Z,61.08
2022-10-15T10:39:59.247Z,61.14
2022-10-15T10:42:34.702Z,61.08
2022-10-15T10:45:24.226Z,60.54
2022-10-15T10:47:51.108Z,60.22
2022-10-15T10:50:40.654Z,60.41
2022-10-15T10:53:25.886Z,59.79
2022-10-15T10:55:56.638Z,59.98
2022-10-15T10:58:29.455Z,58.73
2022-10-15T11:00:58.118Z,59.18
2022-10-15T11:03:37.073Z,59.41
2022-10-15T11:06:16.073Z,59.75
2022-10-15T11:08:58.431Z,59.89
2022-10-15T11:11:48.467Z,58.78
2022-10-15T11:14:44.353Z,58.98
2022-10-15T11:17:24.739Z,57.95
2022-10-15T11:20:26.671Z,57.73
2022-10-15T11:23:11.908Z,57.80
2022-10-15T11:25:53.895Z,57.48
2022-10-15T11:28:51.414Z,57.16
2022-10-15T11:31:29.453Z,58.33
2022-10-15T11:34:14.793Z,57.94
2022-10-15T11:36:50.486Z,57.25
2022-10-15T11:39:34.893Z,57.99
2022-10-15T11:42:10.752Z,57.52
2022-10-15T11:44:53.638Z,57.97
2022-10-15T11:47:26.389Z,58.13
2022-10-15T11:50:30.536Z,58.16
2022-10-15T11:53:06.194Z,58.37
2022-10-15T11:55:42.604Z,58.33
2022-10-15T11:58:29.252Z,58.04
2022-10-15T12:01:01.955Z,58.02
2022-10-15T12:03:35.399Z,57.43
2022-10-15T12:06:14.179Z,57.11
2022-10-15T12:08:42.890Z,56.93
2022-10-15T12:11:48.115Z,57.41
2022-10-15T12:14:35.350Z,57.62
2022-10-15T12:17:14.597Z,57.12
2022-10-15T12:19:54.674Z,57.82
2022-10-15T12:22:47.529Z,58.39
2022-10-15T12:25:36.019Z,58.14
2022-10-15T12:28:13.766Z,58.15
2022-10-15T12:30:42.641Z,58.02
2022-10-15T12:33:35.520Z,57.84
2022-10-15T12:36:09.340Z,58.09
2022-10-15T12:38:41.447Z,58.04
2022-10-15T12:41:11.182Z,59.14
2022-10-15T12:43:42.696Z,58.67
2022-10-15T12:46:11.672Z,58.47
2022-10-15T12:48:44.686Z,58.85
2022-10-15T12:51:23.943Z,58.40
2022-10-15T12:53:53.120Z,59.21
2022-10-15T12:56:25.215Z,59.58
2022-10-15T12:58:55.093Z,59.38
2022-10-15T13:01:22.064Z,59.55
2022-10-15T13:03:49.025Z,59.64
2022-10-15T13:06:21.921Z,59.81
2022-10-15T13:09:09.788Z,61.05
2022-10-15T13:11:47.341Z,60.59
2022-10-15T13:14:31.594Z,59.92
2022-10-15T13:17:02.568Z,60.99
2022-10-15T13:19:46.077Z,61.31
2022-10-15T13:22:28.442Z,61.16
2022-10-15T13:24:56.722Z,61.35
2022-10-15T13:27:25.944Z,61.28
2022-10-15T13:30:01.596Z,60.97
2022-10-15T13:32:32.549Z,62.15
2022-10-15T13:35:10.570Z,62.16
2022-10-15T13:37:40.503Z,62.88
2022-10-15T13:40:08.541Z,63.04
2022-10-15T13:42:35.777Z,63.23
2022-10-15T13:45:18.504Z,63.19
2022-10-15T13:47:51.529Z,64.06
2022-10-15T13:50:21.369Z,63.64
2022-10-15T13:53:03.219Z,63.75
2022-10-15T13:55:37.047Z,63.56
2022-10-15T13:58:17.629Z,63.55
2022-10-15T14:00:52.131Z,63.61
2022-10-15T14:03:31.022Z,64.36
2022-10-15T14:06:14.657Z,64.77
2022-10-15T14:08:41.717Z,64.45
2022-10-15T14:11:13.208Z,64.73
2022-10-15T14:13:48.195Z,64.52
2022-10-15T14:16:39.675Z,63.86
2022-10-15T14:19:09.208Z,64.23
2022-10-15T14:21:37.835Z,64.72
2022-10-15T14:24:15.886Z,64.06
2022-10-15T14:26:44.187Z,63.43
2022-10-15T14:29:36.221Z,63.14
2022-10-15T14:32:03.293Z,62.18
2022-10-15T14:34:35.873Z,61.62
2022-10-15T14:37:04.175Z,61.34
2022-10-15T14:39:34.773Z,60.96
2022-10-15T14:42:04.514Z,60.86
2022-10-15T14:44:48.528Z,61.38
2022-10-15T14:47:27.677Z,60.62
2022-10-15T14:49:59.871Z,60.69
2022-10-15T14:52:30.644Z,60.00
2022-10-15T14:55:38.394Z,60.23
2022-10-15T14:58:10.902Z,60.01
2022-10-15T15:00:47.022Z,60.24
2022-10-15T15:03:19.898Z,60.46
2022-10-15T15:05:55.032Z,60.60
2022-10-15T15:08:23.343Z,60.55
2022-10-15T15:10:51.600Z,60.32
2022-10-15T15:13:22.622Z,60.49
2022-10-15T15:15:50.119Z,60.18
2022-10-15T15:18:17.200Z,60.53
2022-10-15T15:20:46.261Z,60.58
2022-10-15T15:23:25.985Z,60.96
2022-10-15T15:25:54.271Z,61.04
2022-10-15T15:28:24.124Z,61.30
2022-10-15T15:31:16.183Z,61.51
2022-10-15T15:33:44.294Z,61.79
2022-10-15T15:36:19.082Z,61.65
2022-10-15T15:38:51.080Z,61.88
2022-10-15T15:41:20.208Z,62.05
2022-10-15T15:43:47.837Z,61.77
2022-10-15T15:46:15.620Z,61.75
2022-10-15T15:48:42.694Z,61.88
2022-10-15T15:51:30.689Z,61.70
2022-10-15T15:53:58.531Z,61.94
2022-10-15T15:56:25.986Z,62.46
2022-10-15T15:58:53.027Z,62.24
2022-10-15T16:01:21.128Z,62.37
2022-10-15T16:03:48.272Z,62.34
2022-10-15T16:06:15.263Z,62.31
2022-10-15T16:08:42.250Z,62.14
2022-10-15T16:11:09.149Z,62.29
2022-10-15T16:13:36.222Z,62.25
2022-10-15T16:16:03.724Z,62.65
2022-10-15T16:18:30.713Z,62.86
2022-10-15T16:20:57.842Z,62.51
2022-10-15T16:23:24.781Z,63.18
2022-10-15T16:25:52.003Z,63.17
2022-10-15T16:28:18.925Z,63.01
2022-10-15T16:30:45.923Z,63.36
2022-10-15T16:33:12.866Z,63.66
2022-10-15T16:35:39.722Z,63.88
2022-10-15T16:38:07.050Z,64.39
2022-10-15T16:40:34.724Z,64.46
2022-10-15T16:43:01.734Z,64.78
2022-10-15T16:45:28.653Z,64.85
2022-10-15T16:47:55.581Z,65.34
2022-10-15T16:50:22.834Z,65.19
2022-10-15T16:52:49.782Z,65.73
2022-10-15T16:55:17.133Z,65.78
2022-10-15T16:57:44.702Z,66.11
2022-10-15T17:00:12.083Z,66.55
2022-10-15T17:02:39.009Z,67.20
2022-10-15T17:05:06.374Z,67.75
2022-10-15T17:07:33.245Z,68.28
2022-10-15T17:10:00.613Z,68.17
2022-10-15T17:12:28.129Z,68.41
2022-10-15T17:14:55.313Z,68.75
2022-10-15T17:17:22.462Z,69.75
2022-10-15T17:19:49.391Z,69.91
2022-10-15T17:22:16.464Z,70.43
2022-10-15T17:24:43.499Z,70.69
2022-10-15T17:27:10.363Z,70.90
2022-10-15T17:29:37.360Z,70.95
2022-10-15T17:32:04.285Z,70.92
2022-10-15T17:34:31.167Z,71.24
2022-10-15T17:36:58.098Z,71.87
2022-10-15T17:39:25.035Z,72.01
2022-10-15T17:41:52.409Z,72.13
2022-10-15T17:44:19.975Z,71.97
2022-10-15T17:49:24.961Z,72.41
2022-10-15T17:51:51.823Z,72.93
2022-10-15T17:54:18.753Z,73.38
2022-10-15T17:56:45.908Z,72.97
2022-10-15T17:59:13.671Z,73.25
2022-10-15T18:01:59.542Z,73.29
2022-10-15T18:04:29.388Z,73.28
2022-10-15T18:06:56.332Z,73.34
2022-10-15T18:09:27.609Z,73.24
2022-10-15T18:12:00.623Z,73.47
2022-10-15T18:14:29.097Z,73.32
2022-10-15T18:16:56.372Z,73.42
2022-10-15T18:19:24.002Z,73.35
2022-10-15T18:21:50.986Z,73.87
2022-10-15T18:24:22.144Z,73.78
2022-10-15T18:26:51.288Z,74.40
2022-10-15T18:29:19.239Z,74.69
2022-10-15T18:31:47.311Z,74.70
2022-10-15T18:34:14.680Z,74.84
2022-10-15T18:36:43.649Z,75.24
2022-10-15T18:39:11.212Z,75.56
2022-10-15T18:41:38.926Z,75.33
2022-10-15T18:44:11.465Z,75.78
2022-10-15T18:46:42.280Z,75.53
2022-10-15T18:49:09.493Z,75.87
2022-10-15T18:51:36.563Z,75.53
2022-10-15T18:54:04.221Z,76.02
2022-10-15T18:56:31.372Z,75.66
2022-10-15T18:58:58.289Z,75.51
2022-10-15T19:01:29.477Z,75.56
2022-10-15T19:03:58.110Z,76.11
2022-10-15T19:06:29.109Z,75.40
2022-10-15T19:08:59.911Z,75.59
2022-10-15T19:11:30.993Z,74.98
2022-10-15T19:13:59.193Z,75.75
2022-10-15T19:16:26.826Z,75.71
2022-10-15T19:18:56.691Z,75.32
2022-10-15T19:21:23.658Z,75.72
2022-10-15T19:23:50.596Z,75.26
2022-10-15T19:26:17.685Z,75.37
2022-10-15T19:28:45.020Z,75.61
2022-10-15T19:31:18.052Z,75.51
2022-10-15T19:33:44.937Z,75.19
2022-10-15T19:36:11.895Z,75.57
2022-10-15T19:38:38.904Z,75.86
2022-10-15T19:41:07.321Z,75.72
2022-10-15T19:43:34.321Z,75.78
2022-10-15T19:46:04.790Z,75.97
2022-10-15T19:48:33.602Z,75.95
2022-10-15T19:51:04.684Z,75.91
2022-10-15T19:53:33.111Z,76.03
2022-10-15T19:56:02.965Z,75.90
2022-10-15T19:58:30.270Z,76.19
2022-10-15T20:00:57.577Z,76.80
2022-10-15T20:03:26.097Z,76.41
2022-10-15T20:05:53.313Z,76.69
2022-10-15T20:08:20.374Z,76.92
2022-10-15T20:10:51.385Z,76.24
2022-10-15T20:13:20.341Z,76.99
2022-10-15T20:15:49.822Z,76.22
2022-10-15T20:18:17.113Z,76.59
2022-10-15T20:20:48.497Z,76.45
2022-10-15T20:23:16.840Z,76.53
2022-10-15T20:25:44.277Z,76.27
2022-10-15T20:28:13.403Z,76.40
2022-10-15T20:30:41.038Z,76.34
2022-10-15T20:33:08.741Z,75.94
2022-10-15T20:35:38.112Z,75.99
2022-10-15T20:38:06.424Z,75.24
2022-10-15T20:40:35.356Z,75.39
2022-10-15T20:43:02.303Z,75.31
2022-10-15T20:45:37.527Z,74.92
2022-10-15T20:48:05.018Z,74.90
2022-10-15T20:50:35.112Z,74.53
2022-10-15T20:53:02.988Z,74.46
2022-10-15T20:55:30.392Z,74.82
2022-10-15T20:57:57.401Z,75.08
2022-10-15T21:00:24.323Z,74.54
2022-10-15T21:02:51.235Z,74.35
2022-10-15T21:05:18.089Z,74.34
2022-10-15T21:07:45.029Z,74.09
2022-10-15T21:10:11.958Z,73.77
2022-10-15T21:12:39.239Z,73.88
2022-10-15T21:15:06.822Z,74.23
2022-10-15T21:17:33.721Z,73.65
2022-10-15T21:20:00.646Z,74.02
2022-10-15T21:22:27.558Z,73.83
2022-10-15T21:24:54.416Z,73.18
2022-10-15T21:27:21.646Z,72.66
2022-10-15T21:29:49.571Z,72.58
2022-10-15T21:32:16.678Z,72.74
2022-10-15T21:34:43.719Z,72.28
2022-10-15T21:37:11.358Z,72.57
2022-10-15T21:39:38.304Z,72.19
2022-10-15T21:42:05.169Z,72.43
2022-10-15T21:44:32.084Z,71.34
2022-10-15T21:46:59.054Z,71.83
2022-10-15T21:49:25.911Z,71.96
2022-10-15T21:51:52.836Z,71.67
2022-10-15T21:54:19.693Z,71.96
2022-10-15T21:56:46.662Z,71.93
2022-10-15T21:59:13.740Z,72.18
2022-10-15T22:01:41.582Z,72.20
2022-10-15T22:04:10.520Z,71.83
2022-10-15T22:06:41.972Z,72.14
2022-10-15T22:09:10.550Z,72.19
2022-10-15T22:11:40.371Z,72.18
2022-10-15T22:14:10.279Z,72.44
2022-10-15T22:16:39.263Z,72.51
2022-10-15T22:19:08.706Z,72.76
2022-10-15T22:21:38.006Z,72.99
2022-10-15T22:24:15.142Z,73.34
2022-10-15T22:26:45.076Z,73.46
2022-10-15T22:29:23.746Z,74.33
2022-10-15T22:31:51.257Z,74.29
2022-10-15T22:34:19.507Z,75.26
2022-10-15T22:36:46.631Z,74.95
2022-10-15T22:39:15.507Z,76.02
2022-10-15T22:41:44.613Z,75.79
2022-10-15T22:44:19.965Z,76.03
2022-10-15T22:46:49.597Z,76.44
2022-10-15T22:49:22.449Z,76.33
2022-10-15T22:51:50.546Z,76.92
2022-10-15T22:54:20.041Z,76.74
2022-10-15T22:56:47.439Z,77.09
2022-10-15T22:59:15.446Z,77.10
2022-10-15T23:01:43.056Z,77.05
2022-10-15T23:04:12.716Z,77.44
2022-10-15T23:06:39.714Z,77.97
2022-10-15T23:09:07.665Z,77.98
2022-10-15T23:11:37.800Z,78.47
2022-10-15T23:14:07.467Z,78.58
2022-10-15T23:16:36.762Z,79.23
2022-10-15T23:19:07.481Z,79.02
2022-10-15T23:21:43.816Z,79.59
2022-10-15T23:24:11.518Z,79.93
2022-10-15T23:26:39.533Z,79.42
2022-10-15T23:29:08.734Z,79.57
2022-10-15T23:31:36.782Z,79.69
2022-10-15T23:34:05.646Z,79.74
2022-10-15T23:36:33.851Z,79.94
2022-10-15T23:39:02.883Z,80.37
2022-10-15T23:41:31.169Z,80.78
2022-10-15T23:43:58.596Z,80.21
2022-10-15T23:46:26.302Z,80.35
2022-10-15T23:48:53.179Z,80.39
2022-10-15T23:51:26.026Z,80.47
2022-10-15T23:53:54.194Z,80.68
2022-10-15T23:56:22.824Z,80.66
2022-10-15T23:58:55.009Z,80.67
